Time;durP1;ratioP1;P1;durP2;ratioP2;P2;SDS_P1;SDS_P2;PMS_P1;PMS_P2;Temp;Humidity;BMP_temperature;BMP_pressure;BME280_temperature;BME280_humidity;BME280_pressure;Samples;Min_cycle;Max_cycle;Signal;HPM_P1;HPM_P2
2023/03/01 00:02:22;;;;;;;3.95;2.53;;;18.70;49.80;;;;;;6293863;28;20118;-67
2023/03/01 00:05:22;;;;;;;4.75;2.47;;;18.70;49.80;;;;;;6293924;28;20024;-66
2023/03/01 00:08:23;;;;;;;3.22;2.47;;;18.70;49.80;;;;;;6293152;28;20563;-67
2023/03/01 00:11:31;;;;;;;4.28;2.60;;;18.70;49.80;;;;;;6293273;28;20649;-67
2023/03/01 00:14:33;;;;;;;4.20;2.50;;;18.70;49.80;;;;;;6293550;28;20044;-67
2023/03/01 00:17:34;;;;;;;3.53;2.40;;;18.70;49.90;;;;;;6293704;28;20017;-67
2023/03/01 00:20:35;;;;;;;4.07;2.40;;;18.70;49.80;;;;;;6293305;28;20021;-67
2023/03/01 00:23:38;;;;;;;3.63;2.47;;;18.70;49.80;;;;;;6293672;28;20639;-67
2023/03/01 00:26:39;;;;;;;2.83;2.22;;;18.70;49.90;;;;;;6293621;28;20028;-67
2023/03/01 00:29:39;;;;;;;4.25;2.50;;;18.70;49.90;;;;;;6293060;28;20573;-67
2023/03/01 00:32:40;;;;;;;3.88;2.45;;;18.70;49.90;;;;;;6293606;28;20537;-67
2023/03/01 00:35:40;;;;;;;4.40;2.80;;;18.70;49.90;;;;;;6293154;28;20052;-67
2023/03/01 00:38:43;;;;;;;3.17;2.45;;;18.70;49.90;;;;;;6292032;28;20424;-67
2023/03/01 00:41:44;;;;;;;3.70;2.47;;;18.70;49.90;;;;;;6294827;28;20016;-67
2023/03/01 00:44:45;;;;;;;3.60;2.28;;;18.70;49.90;;;;;;6297909;28;20435;-67
2023/03/01 00:47:46;;;;;;;4.28;2.90;;;18.70;49.90;;;;;;6297452;28;20032;-67
2023/03/01 00:50:46;;;;;;;4.15;2.63;;;18.70;49.90;;;;;;6297278;28;20048;-67
2023/03/01 00:53:50;;;;;;;3.35;2.40;;;18.70;50.00;;;;;;6297425;28;20540;-67
2023/03/01 00:56:50;;;;;;;3.70;2.45;;;18.70;50.00;;;;;;6297459;28;20024;-67
2023/03/01 00:59:54;;;;;;;4.68;3.03;;;18.70;49.90;;;;;;6297187;28;20032;-67
2023/03/01 01:02:56;;;;;;;4.18;3.00;;;18.70;50.00;;;;;;6297514;28;20021;-67
2023/03/01 01:05:56;;;;;;;4.15;2.58;;;18.70;50.00;;;;;;6297525;28;20572;-67
2023/03/01 01:08:58;;;;;;;3.80;2.60;;;18.70;50.00;;;;;;6297208;28;20052;-67
2023/03/01 01:11:58;;;;;;;3.75;2.50;;;18.70;50.00;;;;;;6295404;28;20489;-67
2023/03/01 01:14:59;;;;;;;4.68;2.60;;;18.70;50.00;;;;;;6297278;28;20039;-67
2023/03/01 01:18:00;;;;;;;3.78;2.53;;;18.70;50.00;;;;;;6295584;28;20085;-67
2023/03/01 01:21:06;;;;;;;3.97;2.78;;;18.70;50.00;;;;;;6296777;28;20059;-67
2023/03/01 01:24:07;;;;;;;3.70;2.63;;;18.70;50.00;;;;;;6295627;28;20127;-67
2023/03/01 01:27:08;;;;;;;3.20;2.58;;;18.70;50.00;;;;;;6296959;28;20020;-67
2023/03/01 01:30:09;;;;;;;3.70;2.40;;;18.70;50.00;;;;;;6296271;28;20017;-67
2023/03/01 01:33:10;;;;;;;3.72;2.60;;;18.70;50.00;;;;;;6295168;28;20032;-69
2023/03/01 01:36:11;;;;;;;4.25;2.75;;;18.70;50.00;;;;;;6296421;28;20080;-69
2023/03/01 01:39:12;;;;;;;3.70;2.88;;;18.70;50.00;;;;;;6297968;28;20047;-69
2023/03/01 01:42:17;;;;;;;5.20;3.03;;;18.70;50.00;;;;;;6297784;28;20020;-69
2023/03/01 01:45:28;;;;;;;4.72;2.92;;;18.70;50.00;;;;;;6296468;28;20107;-69
2023/03/01 01:48:40;;;;;;;3.90;2.72;;;18.70;50.00;;;;;;6295953;28;20032;-69
2023/03/01 01:51:43;;;;;;;4.05;2.53;;;18.70;50.00;;;;;;6293736;28;20021;-69
2023/03/01 01:55:07;;;;;;;4.20;2.55;;;18.70;50.00;;;;;;6273231;28;20470;-69
2023/03/01 01:58:10;;;;;;;3.47;2.60;;;18.70;50.00;;;;;;6271821;28;20478;-69
2023/03/01 02:01:11;;;;;;;4.18;2.60;;;18.70;50.10;;;;;;6270739;28;20088;-70
2023/03/01 02:04:12;;;;;;;3.53;2.60;;;18.70;50.10;;;;;;6272548;28;20025;-69
2023/03/01 02:07:19;;;;;;;5.80;2.40;;;18.70;50.10;;;;;;6272410;28;20417;-69
2023/03/01 02:10:23;;;;;;;4.05;2.90;;;18.70;50.10;;;;;;6272448;28;20036;-69
2023/03/01 02:13:23;;;;;;;3.63;2.80;;;18.70;50.10;;;;;;6271872;28;20527;-69
2023/03/01 02:16:26;;;;;;;4.88;2.90;;;18.70;50.10;;;;;;6270575;28;20029;-69
2023/03/01 02:19:48;;;;;;;4.40;3.10;;;18.70;50.10;;;;;;6271648;28;20036;-69
2023/03/01 02:22:49;;;;;;;4.10;3.08;;;18.70;50.20;;;;;;6271076;28;20017;-69
2023/03/01 02:26:13;;;;;;;4.30;2.90;;;18.70;50.10;;;;;;6270415;28;20032;-70
2023/03/01 02:29:14;;;;;;;3.58;2.60;;;18.70;50.10;;;;;;6270258;28;20036;-69
2023/03/01 02:32:24;;;;;;;3.58;2.78;;;18.70;50.20;;;;;;6270205;28;20029;-69
2023/03/01 02:35:25;;;;;;;4.45;3.25;;;18.70;50.10;;;;;;6271250;28;20041;-69
2023/03/01 02:38:26;;;;;;;3.10;2.38;;;18.70;50.20;;;;;;6271632;28;20071;-70
2023/03/01 02:41:30;;;;;;;3.65;2.75;;;18.70;50.20;;;;;;6269813;28;20033;-69
2023/03/01 02:44:31;;;;;;;3.67;2.25;;;18.70;50.20;;;;;;6270722;28;20029;-69
2023/03/01 02:47:32;;;;;;;4.63;3.13;;;18.70;50.20;;;;;;6271527;28;20436;-69
2023/03/01 02:51:00;;;;;;;4.57;2.90;;;18.70;50.20;;;;;;6270733;28;20104;-69
2023/03/01 02:54:38;;;;;;;3.58;2.53;;;18.70;50.20;;;;;;6269393;28;20025;-69
2023/03/01 02:57:42;;;;;;;4.20;2.80;;;18.70;50.20;;;;;;6269378;28;20036;-69
2023/03/01 03:00:46;;;;;;;5.25;3.13;;;18.70;50.20;;;;;;6271335;28;20025;-69
2023/03/01 03:03:47;;;;;;;4.28;2.92;;;18.70;50.20;;;;;;6269277;28;20052;-69
2023/03/01 03:06:49;;;;;;;4.45;2.90;;;18.70;50.20;;;;;;6270580;28;20021;-69
2023/03/01 03:09:50;;;;;;;3.97;2.95;;;18.70;50.20;;;;;;6270731;28;20078;-69
2023/03/01 03:13:12;;;;;;;4.93;3.00;;;18.70;50.20;;;;;;6270981;28;20028;-69
2023/03/01 03:16:13;;;;;;;3.35;2.65;;;18.70;50.20;;;;;;6270807;28;20029;-69
2023/03/01 03:19:16;;;;;;;4.65;2.90;;;18.70;50.20;;;;;;6269647;28;20017;-69
2023/03/01 03:22:17;;;;;;;4.15;3.00;;;18.70;50.20;;;;;;6270910;28;20100;-69
2023/03/01 03:25:19;;;;;;;5.53;3.22;;;18.70;50.20;;;;;;6270197;28;20081;-69
2023/03/01 03:28:19;;;;;;;5.05;3.20;;;18.70;50.20;;;;;;6270418;28;20024;-69
2023/03/01 03:31:21;;;;;;;5.10;3.15;;;18.70;50.20;;;;;;6270526;28;20029;-69
2023/03/01 03:34:22;;;;;;;4.55;3.00;;;18.70;50.20;;;;;;6270547;28;20036;-69
2023/03/01 03:40:45;;;;;;;4.20;2.88;;;18.70;50.20;;;;;;6269804;28;20057;-69
2023/03/01 03:43:46;;;;;;;4.17;2.63;;;18.70;50.20;;;;;;6269056;28;20028;-69
2023/03/01 03:46:47;;;;;;;7.90;3.30;;;18.70;50.20;;;;;;6268908;28;20025;-70
2023/03/01 03:49:47;;;;;;;4.38;3.17;;;18.70;50.30;;;;;;6270013;28;20432;-69
2023/03/01 03:52:49;;;;;;;4.55;3.35;;;18.70;50.30;;;;;;6268654;28;20483;-69
2023/03/01 03:55:51;;;;;;;5.85;3.42;;;18.70;50.30;;;;;;6270070;28;20033;-68
2023/03/01 03:58:52;;;;;;;4.60;3.20;;;18.70;50.30;;;;;;6270377;28;20488;-69
2023/03/01 04:01:53;;;;;;;4.75;3.25;;;18.70;50.30;;;;;;6270703;28;20017;-69
2023/03/01 04:04:53;;;;;;;4.30;2.85;;;18.70;50.30;;;;;;6268076;28;20065;-70
2023/03/01 04:08:00;;;;;;;4.28;2.95;;;18.70;50.30;;;;;;6267502;28;20033;-70
2023/03/01 04:11:25;;;;;;;4.80;2.65;;;18.70;50.30;;;;;;6268127;28;20418;-67
2023/03/01 04:14:24;;;;;;;3.42;2.60;;;18.70;50.30;;;;;;6267934;28;20051;-71
2023/03/01 04:17:24;;;;;;;4.43;3.20;;;18.70;50.30;;;;;;6269686;28;20359;-71
2023/03/01 04:20:30;;;;;;;4.88;3.13;;;18.70;50.30;;;;;;6270588;28;20394;-70
2023/03/01 04:23:31;;;;;;;4.85;3.20;;;18.70;50.30;;;;;;6270463;28;20452;-71
2023/03/01 04:26:31;;;;;;;5.60;3.42;;;18.70;50.30;;;;;;6269862;28;20021;-71
2023/03/01 04:29:32;;;;;;;4.85;3.17;;;18.70;50.30;;;;;;6271681;28;20031;-71
2023/03/01 04:32:33;;;;;;;4.57;3.05;;;18.70;50.40;;;;;;6271586;28;20103;-69
2023/03/01 04:35:35;;;;;;;4.60;2.95;;;18.70;50.40;;;;;;6271385;28;20406;-70
2023/03/01 04:38:37;;;;;;;4.35;3.05;;;18.70;50.30;;;;;;6271998;28;20022;-72
2023/03/01 04:41:39;;;;;;;4.47;3.25;;;18.70;50.40;;;;;;6270375;28;20389;-71
2023/03/01 04:44:40;;;;;;;3.75;2.92;;;18.70;50.40;;;;;;6271381;28;20055;-71
2023/03/01 04:47:44;;;;;;;4.32;3.42;;;18.70;50.40;;;;;;6271193;28;20025;-71
2023/03/01 04:50:44;;;;;;;4.28;3.20;;;18.70;50.40;;;;;;6266979;28;20037;-71
2023/03/01 04:53:45;;;;;;;4.70;3.10;;;18.70;50.40;;;;;;6271097;28;20151;-70
2023/03/01 04:56:46;;;;;;;4.93;3.28;;;18.70;50.40;;;;;;6270985;28;20612;-71
2023/03/01 05:00:33;;;;;;;5.38;3.40;;;18.70;50.40;;;;;;6270944;28;20100;-71
2023/03/01 05:03:34;;;;;;;4.85;3.47;;;18.70;50.40;;;;;;6271076;28;20064;-71
2023/03/01 05:06:34;;;;;;;3.85;3.13;;;18.70;50.40;;;;;;6271041;28;20025;-71
2023/03/01 05:09:35;;;;;;;4.07;3.20;;;18.70;50.40;;;;;;6269290;28;20393;-71
2023/03/01 05:12:37;;;;;;;4.45;3.13;;;18.70;50.40;;;;;;6269583;28;20545;-71
2023/03/01 05:15:37;;;;;;;5.15;3.60;;;18.70;50.40;;;;;;6270517;28;20017;-71
2023/03/01 05:18:39;;;;;;;4.45;3.17;;;18.70;50.40;;;;;;6270619;28;20072;-71
2023/03/01 05:22:01;;;;;;;5.15;3.30;;;18.70;50.40;;;;;;6268809;28;20024;-71
2023/03/01 05:25:02;;;;;;;5.00;3.63;;;18.70;50.40;;;;;;6261518;28;20056;-71
2023/03/01 05:28:04;;;;;;;5.40;3.40;;;18.70;50.40;;;;;;6269334;28;20389;-71
2023/03/01 05:31:09;;;;;;;5.25;3.30;;;18.70;50.40;;;;;;6269352;28;20025;-71
2023/03/01 05:34:12;;;;;;;;;;;18.70;50.40;;;;;;6269021;28;20513;-71
2023/03/01 05:37:14;;;;;;;4.32;3.20;;;18.70;50.40;;;;;;6269828;28;19950;-70
2023/03/01 05:40:20;;;;;;;4.25;3.03;;;18.70;50.40;;;;;;6269849;28;20028;-71
2023/03/01 05:43:21;;;;;;;4.78;3.30;;;18.70;50.40;;;;;;6269392;28;20040;-70
2023/03/01 05:46:24;;;;;;;4.53;3.22;;;18.70;50.40;;;;;;6268820;28;20029;-71
2023/03/01 05:49:25;;;;;;;5.20;3.22;;;18.70;50.40;;;;;;6269994;28;20028;-71
2023/03/01 05:52:26;;;;;;;5.25;3.47;;;18.70;50.40;;;;;;6270312;28;20050;-71
2023/03/01 05:55:29;;;;;;;5.03;3.53;;;18.70;50.40;;;;;;6269815;28;20029;-71
2023/03/01 05:58:30;;;;;;;4.75;3.28;;;18.70;50.40;;;;;;6269996;28;20029;-69
2023/03/01 06:01:35;;;;;;;4.57;3.17;;;18.70;50.40;;;;;;6261241;28;20036;-71
2023/03/01 06:04:35;;;;;;;4.67;3.33;;;18.70;50.40;;;;;;6245296;28;20585;-71
2023/03/01 06:07:36;;;;;;;4.40;3.08;;;18.70;50.50;;;;;;6261598;28;20041;-70
2023/03/01 06:10:37;;;;;;;5.18;3.53;;;18.70;50.50;;;;;;6252980;28;20091;-75
2023/03/01 06:13:38;;;;;;;5.85;3.42;;;18.70;50.50;;;;;;6259957;28;20025;-75
2023/03/01 06:16:39;;;;;;;5.15;3.20;;;18.70;50.40;;;;;;6276122;28;20477;-75
2023/03/01 06:19:39;;;;;;;4.78;3.40;;;18.70;50.40;;;;;;6294144;28;20016;-71
2023/03/01 06:22:41;;;;;;;4.82;3.33;;;18.70;50.40;;;;;;6275695;28;20032;-71
2023/03/01 06:25:42;;;;;;;5.38;3.40;;;18.70;50.50;;;;;;6274345;28;20562;-71
2023/03/01 06:28:45;;;;;;;4.68;3.30;;;18.70;50.40;;;;;;6272505;28;20029;-72
2023/03/01 06:31:47;;;;;;;3.92;2.80;;;18.70;50.40;;;;;;6268740;28;20021;-72
2023/03/01 06:34:47;;;;;;;5.32;3.53;;;18.70;50.40;;;;;;6269318;28;20048;-72
2023/03/01 06:37:48;;;;;;;5.20;3.30;;;18.70;50.50;;;;;;6270279;28;20025;-71
2023/03/01 06:40:54;;;;;;;4.18;3.28;;;18.70;50.50;;;;;;6268158;28;20106;-72
2023/03/01 06:43:54;;;;;;;4.47;3.25;;;18.70;50.50;;;;;;6289234;28;20055;-70
2023/03/01 06:46:55;;;;;;;5.47;3.47;;;18.70;50.50;;;;;;6286346;28;20426;-71
2023/03/01 06:49:56;;;;;;;4.28;3.08;;;18.70;50.50;;;;;;6269205;28;20074;-72
2023/03/01 06:52:57;;;;;;;6.13;3.67;;;18.70;50.50;;;;;;6280586;28;20107;-71
2023/03/01 06:56:02;;;;;;;5.78;3.60;;;18.70;50.50;;;;;;6292638;28;20031;-71
2023/03/01 06:59:02;;;;;;;4.00;3.10;;;18.70;50.50;;;;;;6276824;28;20054;-72
2023/03/01 07:02:03;;;;;;;5.25;3.28;;;18.70;50.60;;;;;;6273803;28;20020;-72
2023/03/01 07:05:04;;;;;;;6.22;3.55;;;18.70;50.50;;;;;;6271171;28;20033;-70
2023/03/01 07:08:05;;;;;;;7.03;3.00;;;18.70;50.50;;;;;;6271058;28;20067;-71
2023/03/01 07:11:06;;;;;;;6.07;3.67;;;18.70;50.60;;;;;;6295368;28;20572;-72
2023/03/01 07:14:07;;;;;;;4.93;3.45;;;18.70;50.50;;;;;;6293010;28;20055;-72
2023/03/01 07:17:08;;;;;;;10.48;3.63;;;18.70;50.60;;;;;;6270222;28;20029;-72
2023/03/01 07:20:09;;;;;;;4.82;3.22;;;18.80;50.50;;;;;;6269639;28;20028;-71
2023/03/01 07:23:10;;;;;;;5.32;3.42;;;18.80;50.40;;;;;;6261971;28;20025;-72
2023/03/01 07:26:11;;;;;;;4.88;2.97;;;18.80;51.00;;;;;;6266548;28;20543;-72
2023/03/01 07:29:11;;;;;;;5.10;3.65;;;18.80;50.40;;;;;;6268646;28;20401;-72
2023/03/01 07:32:13;;;;;;;5.68;3.42;;;18.80;50.40;;;;;;6270139;28;20671;-72
2023/03/01 07:35:14;;;;;;;6.80;3.95;;;18.80;50.50;;;;;;6269873;28;20048;-72
2023/03/01 07:38:15;;;;;;;6.97;2.95;;;18.80;50.50;;;;;;6270575;28;20025;-72
2023/03/01 07:41:16;;;;;;;6.05;4.07;;;18.80;50.60;;;;;;6270564;28;20028;-72
2023/03/01 07:44:17;;;;;;;5.60;3.50;;;18.80;50.60;;;;;;6270302;28;20033;-72
2023/03/01 07:47:17;;;;;;;5.20;3.60;;;18.80;50.60;;;;;;6270210;28;20436;-72
2023/03/01 07:50:19;;;;;;;5.10;3.72;;;18.80;50.60;;;;;;6269870;28;20032;-71
2023/03/01 07:53:19;;;;;;;5.40;3.50;;;18.80;50.60;;;;;;6273708;28;20094;-72
2023/03/01 07:56:21;;;;;;;5.18;3.47;;;18.80;50.60;;;;;;6260275;28;20037;-72
2023/03/01 07:59:28;;;;;;;5.68;3.45;;;18.80;50.60;;;;;;6285323;28;20078;-72
2023/03/01 08:02:30;;;;;;;5.90;3.80;;;18.80;50.60;;;;;;6261242;28;20508;-72
2023/03/01 08:05:32;;;;;;;6.13;3.67;;;18.80;50.60;;;;;;6277791;28;20066;-72
2023/03/01 08:08:33;;;;;;;5.68;3.58;;;18.80;50.60;;;;;;6284651;28;20025;-71
2023/03/01 08:11:34;;;;;;;6.43;3.47;;;18.80;50.60;;;;;;6285139;28;20470;-72
2023/03/01 08:14:35;;;;;;;6.35;3.80;;;18.80;50.60;;;;;;6279888;28;20040;-72
2023/03/01 08:17:35;;;;;;;8.55;3.85;;;18.80;50.70;;;;;;6273679;28;20032;-72
2023/03/01 08:20:36;;;;;;;5.70;3.50;;;18.80;50.70;;;;;;6273596;28;20576;-71
2023/03/01 08:23:37;;;;;;;6.35;3.63;;;18.80;50.70;;;;;;6274036;28;20051;-69
2023/03/01 08:26:38;;;;;;;8.38;3.95;;;18.80;50.70;;;;;;6280219;28;20028;-72
2023/03/01 08:29:39;;;;;;;7.38;3.83;;;18.80;50.70;;;;;;6283067;28;20079;-73
2023/03/01 08:32:40;;;;;;;6.30;3.65;;;18.80;50.70;;;;;;6273412;28;20079;-72
2023/03/01 08:35:40;;;;;;;4.78;3.40;;;18.80;50.70;;;;;;6273390;28;20448;-72
2023/03/01 08:38:41;;;;;;;11.52;3.70;;;18.80;50.70;;;;;;6272011;28;20017;-71
2023/03/01 08:41:42;;;;;;;4.43;3.38;;;18.80;50.70;;;;;;6276995;28;20068;-72
2023/03/01 08:44:43;;;;;;;4.65;3.20;;;18.80;50.70;;;;;;6297195;28;20441;-72
2023/03/01 08:47:45;;;;;;;4.57;3.30;;;18.80;50.70;;;;;;6285140;28;20029;-72
2023/03/01 08:50:45;;;;;;;5.75;3.47;;;18.80;50.70;;;;;;6258725;28;20033;-72
2023/03/01 08:53:46;;;;;;;3.72;3.10;;;18.80;50.70;;;;;;6287047;28;20013;-71
2023/03/01 08:56:48;;;;;;;4.88;3.33;;;18.80;50.70;;;;;;6266276;28;20796;-72
2023/03/01 08:59:49;;;;;;;5.07;3.47;;;18.80;50.70;;;;;;6279063;28;20025;-72
2023/03/01 09:02:49;;;;;;;4.25;3.15;;;18.80;50.70;;;;;;6296253;28;20066;-72
2023/03/01 09:05:51;;;;;;;5.57;3.60;;;18.80;50.80;;;;;;6276445;28;20396;-72
2023/03/01 09:08:52;;;;;;;5.85;3.50;;;18.80;50.80;;;;;;6282408;28;20082;-72
2023/03/01 09:11:53;;;;;;;5.78;3.60;;;18.80;50.80;;;;;;6274362;28;20025;-72
2023/03/01 09:14:53;;;;;;;4.55;3.10;;;18.80;50.80;;;;;;6286522;28;20025;-72
2023/03/01 09:17:54;;;;;;;5.00;3.35;;;18.80;51.40;;;;;;6283344;28;20029;-72
2023/03/01 09:21:09;;;;;;;6.25;3.42;;;18.80;50.80;;;;;;6278840;28;20037;-72
2023/03/01 09:24:14;;;;;;;5.63;3.40;;;18.80;50.80;;;;;;6268693;28;20018;-72
2023/03/01 09:27:18;;;;;;;5.45;3.25;;;18.80;50.80;;;;;;6254733;28;20031;-72
2023/03/01 09:30:20;;;;;;;7.57;3.17;;;18.80;50.80;;;;;;6280027;28;20128;-72
2023/03/01 09:33:20;;;;;;;5.25;3.08;;;18.80;50.80;;;;;;6263699;28;20029;-72
2023/03/01 09:36:25;;;;;;;5.15;3.08;;;18.80;50.90;;;;;;6264298;28;20079;-72
2023/03/01 09:39:26;;;;;;;4.57;3.08;;;18.80;50.90;;;;;;6292641;28;20071;-73
2023/03/01 09:42:31;;;;;;;4.63;3.25;;;18.80;50.90;;;;;;6271831;28;20080;-72
2023/03/01 09:45:42;;;;;;;4.63;3.05;;;18.80;50.90;;;;;;6271691;28;20484;-72
2023/03/01 09:49:05;;;;;;;4.28;3.03;;;18.80;50.90;;;;;;6281533;28;20111;-71
2023/03/01 09:52:48;;;;;;;5.57;3.38;;;18.80;50.90;;;;;;6246070;28;20037;-71
2023/03/01 09:56:12;;;;;;;3.83;2.97;;;18.90;51.00;;;;;;6258543;28;20024;-73
2023/03/01 09:59:21;;;;;;;4.07;2.92;;;18.90;50.80;;;;;;6287183;28;20032;-72
2023/03/01 10:02:22;;;;;;;5.90;3.03;;;18.90;50.80;;;;;;6271061;28;20385;-69
2023/03/01 10:05:43;;;;;;;4.07;2.95;;;18.90;50.70;;;;;;6270124;28;20033;-72
2023/03/01 10:09:17;;;;;;;4.13;2.90;;;19.00;50.70;;;;;;6281519;28;20025;-72
2023/03/01 10:12:34;;;;;;;4.38;2.97;;;19.00;50.70;;;;;;6272040;28;20025;-71
2023/03/01 10:15:40;;;;;;;4.72;2.70;;;19.00;50.40;;;;;;6253529;28;20685;-72
2023/03/01 10:18:43;;;;;;;3.60;2.63;;;19.00;50.50;;;;;;6278694;28;20051;-72
2023/03/01 10:21:45;;;;;;;3.97;3.05;;;19.00;50.60;;;;;;6278567;28;20505;-72
2023/03/01 10:24:48;;;;;;;3.95;2.95;;;18.90;50.60;;;;;;6267823;28;20060;-72
2023/03/01 10:27:54;;;;;;;3.63;2.45;;;18.90;50.70;;;;;;6270667;28;20527;-72
2023/03/01 10:30:56;;;;;;;4.05;2.80;;;18.90;50.80;;;;;;6284435;28;20025;-72
2023/03/01 10:33:58;;;;;;;4.80;2.97;;;18.90;50.80;;;;;;6276415;28;20278;-71
2023/03/01 10:37:21;;;;;;;3.22;2.30;;;18.90;50.90;;;;;;6276545;28;20098;-72
2023/03/01 10:40:22;;;;;;;3.58;2.40;;;18.90;50.90;;;;;;6284045;28;20540;-71
2023/03/01 10:43:29;;;;;;;3.90;2.90;;;18.90;50.90;;;;;;6270689;28;20021;-72
2023/03/01 10:46:37;;;;;;;4.68;2.67;;;18.90;50.90;;;;;;6246048;28;20479;-72
2023/03/01 10:49:38;;;;;;;3.92;2.53;;;18.90;50.90;;;;;;6257663;28;20038;-71
2023/03/01 10:52:41;;;;;;;3.40;2.33;;;18.90;50.90;;;;;;6245442;28;20555;-71
2023/03/01 10:55:43;;;;;;;5.30;2.80;;;18.90;50.90;;;;;;6261295;28;20389;-72
2023/03/01 10:59:05;;;;;;;4.68;2.92;;;18.90;50.90;;;;;;6269283;28;20074;-72
2023/03/01 11:02:25;;;;;;;4.63;2.80;;;18.90;50.90;;;;;;6280241;28;20027;-72
2023/03/01 11:05:29;;;;;;;4.15;3.03;;;18.80;50.90;;;;;;6269765;28;20029;-72
2023/03/01 11:08:36;;;;;;;4.53;2.60;;;18.90;50.90;;;;;;6270081;28;20483;-71
2023/03/01 11:11:37;;;;;;;5.82;3.35;;;18.90;50.90;;;;;;6268522;28;20494;-71
2023/03/01 11:14:45;;;;;;;4.03;2.55;;;18.90;50.90;;;;;;6268338;28;20064;-72
2023/03/01 11:17:46;;;;;;;4.72;3.10;;;18.90;51.00;;;;;;6270026;28;20021;-72
2023/03/01 11:20:50;;;;;;;4.15;2.38;;;18.90;51.00;;;;;;6284710;28;20074;-70
2023/03/01 11:23:52;;;;;;;4.43;2.70;;;18.90;51.00;;;;;;6291833;28;20099;-72
2023/03/01 11:26:54;;;;;;;6.13;2.67;;;18.80;50.90;;;;;;6291486;28;20027;-72
2023/03/01 11:29:57;;;;;;;4.18;2.55;;;18.80;50.90;;;;;;6286878;28;20056;-72
2023/03/01 11:33:17;;;;;;;5.13;2.72;;;18.90;51.10;;;;;;6269427;28;20040;-72
2023/03/01 11:36:24;;;;;;;4.82;2.95;;;18.90;51.00;;;;;;6258052;28;20415;-69
2023/03/01 11:39:52;;;;;;;3.90;2.72;;;18.90;51.10;;;;;;6245740;28;20045;-72
2023/03/01 11:43:15;;;;;;;7.57;2.95;;;18.80;51.00;;;;;;6269753;28;20386;-72
2023/03/01 11:46:34;;;;;;;5.43;2.67;;;18.80;51.00;;;;;;6269700;28;20029;-72
2023/03/01 11:50:02;;;;;;;4.22;2.70;;;18.90;51.10;;;;;;6267189;28;20076;-72
2023/03/01 11:53:26;;;;;;;3.85;2.30;;;18.90;51.20;;;;;;6251832;28;20709;-75
2023/03/01 11:57:03;;;;;;;5.78;2.88;;;18.90;51.10;;;;;;6249344;28;20048;-77
2023/03/01 12:00:33;;;;;;;6.68;3.08;;;18.90;51.10;;;;;;6245059;28;20175;-73
2023/03/01 12:03:54;;;;;;;3.40;2.25;;;18.90;50.80;;;;;;6244002;28;20492;-72
2023/03/01 12:07:19;;;;;;;4.45;2.70;;;18.90;51.00;;;;;;6244856;28;20033;-73
2023/03/01 12:10:55;;;;;;;5.63;2.60;;;18.80;50.90;;;;;;6244009;28;20031;-73
2023/03/01 12:14:41;;;;;;;4.30;2.50;;;18.80;50.90;;;;;;6251492;28;20037;-73
2023/03/01 12:18:10;;;;;;;4.10;2.50;;;18.80;50.80;;;;;;6244567;28;20048;-73
2023/03/01 12:21:56;;;;;;;3.92;2.33;;;18.90;51.00;;;;;;6244672;28;20026;-73
2023/03/01 12:25:33;;;;;;;3.88;2.20;;;18.90;51.00;;;;;;6240509;28;20124;-73
2023/03/01 12:28:55;;;;;;;4.93;2.67;;;18.80;50.90;;;;;;6233616;28;20029;-74
2023/03/01 12:31:59;;;;;;;3.70;2.30;;;18.80;50.90;;;;;;6244186;28;20021;-73
2023/03/01 12:35:16;;;;;;;5.38;2.25;;;18.80;50.90;;;;;;6256433;28;20444;-73
2023/03/01 12:38:34;;;;;;;4.07;2.33;;;18.90;51.70;;;;;;6293843;28;20028;-73
2023/03/01 12:42:02;;;;;;;4.80;2.70;;;18.90;51.00;;;;;;6290092;28;20017;-72
2023/03/01 12:45:12;;;;;;;3.72;2.40;;;18.80;51.00;;;;;;6273353;28;20048;-73
2023/03/01 12:48:39;;;;;;;4.60;2.60;;;18.80;50.90;;;;;;6273521;28;20501;-72
2023/03/01 12:51:48;;;;;;;3.97;2.47;;;18.90;51.00;;;;;;6268447;28;20032;-73
2023/03/01 12:54:53;;;;;;;4.20;2.70;;;18.80;50.90;;;;;;6275315;28;20040;-72
2023/03/01 12:58:01;;;;;;;5.05;2.80;;;18.80;50.90;;;;;;6272514;28;20025;-73
2023/03/01 13:01:14;;;;;;;5.07;2.75;;;18.80;50.40;;;;;;6285176;28;20028;-73
2023/03/01 13:04:52;;;;;;;5.07;3.08;;;18.80;50.80;;;;;;6297492;28;20012;-72
2023/03/01 13:08:18;;;;;;;5.32;2.80;;;18.80;50.70;;;;;;6281575;28;20032;-73
2023/03/01 13:11:23;;;;;;;6.47;3.17;;;18.80;51.40;;;;;;6248822;28;20029;-72
2023/03/01 13:14:24;;;;;;;5.47;2.78;;;18.80;50.60;;;;;;6272015;28;20036;-72
2023/03/01 13:17:43;;;;;;;6.32;2.47;;;18.80;50.70;;;;;;6271360;28;20029;-73
2023/03/01 13:20:43;;;;;;;6.50;3.08;;;18.80;50.60;;;;;;6265084;28;20427;-73
2023/03/01 13:23:48;;;;;;;4.80;2.42;;;18.80;50.70;;;;;;6290587;28;20028;-73
2023/03/01 13:27:07;;;;;;;4.70;2.50;;;18.80;50.60;;;;;;6251001;28;20029;-72
2023/03/01 13:30:33;;;;;;;5.05;2.72;;;18.80;50.70;;;;;;6272551;28;20025;-73
2023/03/01 13:33:44;;;;;;;3.70;2.40;;;18.80;50.70;;;;;;6289701;28;20044;-73
2023/03/01 13:36:48;;;;;;;4.97;2.60;;;18.80;50.70;;;;;;6297184;28;20040;-73
2023/03/01 13:39:50;;;;;;;4.60;2.30;;;18.80;50.70;;;;;;6297528;28;20036;-72
2023/03/01 13:42:53;;;;;;;6.75;3.30;;;18.80;50.70;;;;;;6276073;28;20096;-72
2023/03/01 13:45:54;;;;;;;4.68;2.40;;;18.80;50.80;;;;;;6272463;28;20021;-72
2023/03/01 13:48:57;;;;;;;4.45;2.45;;;18.80;50.80;;;;;;6291045;28;20024;-73
2023/03/01 13:51:58;;;;;;;5.35;3.05;;;18.80;50.90;;;;;;6256078;28;20482;-72
2023/03/01 13:55:01;;;;;;;6.22;2.85;;;18.80;50.80;;;;;;6295127;28;20149;-72
2023/03/01 13:58:14;;;;;;;4.85;2.60;;;18.80;50.80;;;;;;6285787;28;20045;-74
2023/03/01 14:01:25;;;;;;;5.30;2.42;;;18.80;50.80;;;;;;6272912;28;20417;-77
2023/03/01 14:04:31;;;;;;;6.40;3.03;;;18.80;50.90;;;;;;6288638;28;20029;-77
2023/03/01 14:07:31;;;;;;;4.70;2.45;;;18.80;50.80;;;;;;6277213;28;20021;-77
2023/03/01 14:10:54;;;;;;;4.30;2.50;;;18.80;50.90;;;;;;6280875;28;20052;-76
2023/03/01 14:14:23;;;;;;;5.20;2.70;;;18.80;50.90;;;;;;6277607;28;20025;-77
2023/03/01 14:17:35;;;;;;;3.58;2.33;;;18.80;50.90;;;;;;6267340;28;20024;-77
2023/03/01 14:20:42;;;;;;;5.10;2.38;;;18.80;50.90;;;;;;6288718;28;20028;-77
2023/03/01 14:23:43;;;;;;;3.80;2.33;;;18.80;50.90;;;;;;6284510;28;20028;-77
2023/03/01 14:26:44;;;;;;;4.38;2.45;;;18.80;50.90;;;;;;6281239;28;20017;-77
2023/03/01 14:29:58;;;;;;;5.60;2.92;;;18.80;50.90;;;;;;6279575;28;20032;-77
2023/03/01 14:33:06;;;;;;;4.68;2.47;;;18.80;50.90;;;;;;6278065;28;20021;-74
2023/03/01 14:36:09;;;;;;;5.47;2.72;;;18.80;50.90;;;;;;6277540;28;20045;-76
2023/03/01 14:39:18;;;;;;;6.28;2.72;;;18.80;51.00;;;;;;6288225;28;20029;-75
2023/03/01 14:42:23;;;;;;;7.22;2.88;;;18.80;50.90;;;;;;6278401;28;20063;-77
2023/03/01 14:45:26;;;;;;;5.35;2.72;;;18.80;51.00;;;;;;6299323;28;20025;-75
2023/03/01 14:48:29;;;;;;;4.78;2.38;;;18.80;51.00;;;;;;6299522;28;20149;-77
2023/03/01 14:51:34;;;;;;;5.65;2.30;;;18.80;51.00;;;;;;6261457;28;20064;-77
2023/03/01 14:54:44;;;;;;;5.47;2.75;;;18.80;51.00;;;;;;6262102;28;20397;-77
2023/03/01 14:57:48;;;;;;;5.30;2.55;;;18.80;51.00;;;;;;6275926;28;20547;-75
2023/03/01 15:00:59;;;;;;;6.57;2.60;;;18.80;51.00;;;;;;6275903;28;20013;-77
2023/03/01 15:04:02;;;;;;;4.32;2.35;;;18.80;51.00;;;;;;6279044;28;20110;-77
2023/03/01 15:07:06;;;;;;;3.85;2.10;;;18.80;51.00;;;;;;6275633;28;20401;-77
2023/03/01 15:10:29;;;;;;;5.65;2.80;;;18.80;51.00;;;;;;6275987;28;20036;-77
2023/03/01 15:13:35;;;;;;;4.63;2.17;;;18.80;51.70;;;;;;6271248;28;20028;-71
2023/03/01 15:16:41;;;;;;;6.25;2.97;;;18.80;51.00;;;;;;6271421;28;20036;-72
2023/03/01 15:19:41;;;;;;;3.83;2.30;;;18.80;51.00;;;;;;6269427;28;20025;-71
2023/03/01 15:22:48;;;;;;;5.40;2.55;;;18.80;51.00;;;;;;6271514;28;20078;-71
2023/03/01 15:25:56;;;;;;;6.25;2.65;;;18.80;51.00;;;;;;6271864;28;20552;-72
2023/03/01 15:28:58;;;;;;;4.65;2.75;;;18.80;51.00;;;;;;6272101;28;20025;-70
2023/03/01 15:32:05;;;;;;;5.47;2.58;;;18.80;51.10;;;;;;6270276;28;20032;-70
2023/03/01 15:35:45;;;;;;;4.57;2.30;;;18.80;51.00;;;;;;6269325;28;20044;-70
2023/03/01 15:38:55;;;;;;;5.78;2.92;;;18.80;51.10;;;;;;6269793;28;20025;-72
2023/03/01 15:41:56;;;;;;;6.60;2.75;;;18.80;51.20;;;;;;6270065;28;20406;-72
2023/03/01 15:45:15;;;;;;;7.35;3.30;;;18.80;51.10;;;;;;6269500;28;20021;-71
2023/03/01 15:48:20;;;;;;;5.28;2.85;;;18.80;51.10;;;;;;6244813;28;20513;-72
2023/03/01 15:51:35;;;;;;;5.32;2.97;;;18.80;51.10;;;;;;6254213;28;20025;-71
2023/03/01 15:54:37;;;;;;;5.78;2.72;;;18.80;51.10;;;;;;6249710;28;20453;-72
2023/03/01 15:57:38;;;;;;;11.32;4.53;;;18.80;51.10;;;;;;6269040;28;20029;-72
2023/03/01 16:00:39;;;;;;;11.77;4.18;;;18.80;51.20;;;;;;6275663;28;20061;-72
2023/03/01 16:03:40;;;;;;;12.52;4.82;;;18.80;51.10;;;;;;6269398;28;20049;-72
2023/03/01 16:06:42;;;;;;;12.73;5.15;;;18.80;51.10;;;;;;6291478;28;20029;-71
2023/03/01 16:09:43;;;;;;;14.38;5.70;;;18.80;51.10;;;;;;6287970;28;20551;-71
2023/03/01 16:12:47;;;;;;;21.85;6.88;;;18.80;51.80;;;;;;6272461;28;20028;-72
2023/03/01 16:15:47;;;;;;;17.45;6.53;;;18.80;51.20;;;;;;6273870;28;20020;-72